Time;durP1;ratioP1;P1;durP2;ratioP2;P2;SDS_P1;SDS_P2;PMS_P1;PMS_P2;Temp;Humidity;BMP_temperature;BMP_pressure;BME280_temperature;BME280_humidity;BME280_pressure;Samples;Min_cycle;Max_cycle;Signal;HPM_P1;HPM_P2
2024/01/06 00:01:49;;;;;;;9.53;4.70;;;2.00;99.90;1.60;99325.00;;;;4908621;28;123412;-69
2024/01/06 00:04:14;;;;;;;6.93;3.87;;;2.00;99.90;1.50;99335.00;;;;4907088;28;123073;-70
2024/01/06 00:06:40;;;;;;;6.17;3.73;;;1.90;99.90;1.50;99335.00;;;;4907313;28;107863;-69
2024/01/06 00:09:06;;;;;;;6.83;4.40;;;1.80;99.90;1.40;99338.00;;;;4909473;28;108456;-69
2024/01/06 00:11:31;;;;;;;4.60;4.13;;;1.80;99.90;1.40;99338.00;;;;4909758;28;93156;-70
2024/01/06 00:13:57;;;;;;;6.53;3.10;;;1.80;99.90;1.30;99336.00;;;;4907206;28;117002;-69
2024/01/06 00:16:23;;;;;;;4.47;3.97;;;1.60;99.90;1.30;99332.00;;;;4904269;28;93987;-69
2024/01/06 00:18:48;;;;;;;10.03;4.20;;;1.60;99.90;1.20;99337.00;;;;4907290;28;108419;-70
2024/01/06 00:21:14;;;;;;;4.03;3.63;;;1.60;99.90;1.20;99337.00;;;;4906285;28;115291;-69
2024/01/06 00:23:40;;;;;;;7.27;3.43;;;1.70;99.90;1.20;99338.00;;;;4905247;28;122811;-70
2024/01/06 00:26:07;;;;;;;5.93;3.83;;;1.50;99.90;1.10;99337.00;;;;4909225;28;92841;-70
2024/01/06 00:28:32;;;;;;;8.33;4.07;;;1.50;99.90;1.10;99354.00;;;;4902082;28;93076;-69
2024/01/06 00:30:58;;;;;;;4.90;3.73;;;1.40;99.90;1.00;99342.00;;;;4904852;28;120425;-70
2024/01/06 00:33:32;;;;;;;4.30;3.47;;;1.40;99.90;1.00;99337.00;;;;4907687;28;120910;-70
2024/01/06 00:35:58;;;;;;;5.83;3.87;;;1.40;99.90;0.90;99340.00;;;;4920771;28;103538;-71
2024/01/06 00:38:24;;;;;;;6.63;4.20;;;1.40;99.90;0.90;99338.00;;;;4908535;28;92975;-69
2024/01/06 00:40:49;;;;;;;9.87;3.93;;;1.20;99.90;0.80;99344.00;;;;4909935;28;102823;-71
2024/01/06 00:43:15;;;;;;;6.63;4.20;;;1.20;99.90;0.80;99345.00;;;;4906507;28;123443;-70
2024/01/06 00:45:41;;;;;;;2.93;2.73;;;1.20;99.90;0.80;99356.00;;;;4907718;28;109726;-71
2024/01/06 00:48:07;;;;;;;7.50;4.43;;;1.20;99.90;0.80;99356.00;;;;4907520;28;107684;-71
2024/01/06 00:50:32;;;;;;;7.40;4.40;;;1.10;99.90;0.80;99361.00;;;;4903863;28;116523;-70
2024/01/06 00:52:58;;;;;;;4.87;4.00;;;1.10;99.90;0.70;99362.00;;;;4908724;28;93582;-70
2024/01/06 00:55:24;;;;;;;5.50;3.83;;;1.10;99.90;0.70;99368.00;;;;4917300;28;110831;-70
2024/01/06 00:57:50;;;;;;;3.57;3.10;;;1.40;99.90;0.70;99359.00;;;;4908820;28;92104;-70
2024/01/06 01:00:16;;;;;;;6.80;3.50;;;1.10;99.90;0.70;99365.00;;;;4903276;28;122808;-70
2024/01/06 01:02:41;;;;;;;7.03;4.17;;;1.10;99.90;0.60;99368.00;;;;4904543;28;122847;-70
2024/01/06 01:05:07;;;;;;;3.47;3.17;;;1.00;99.90;0.60;99375.00;;;;4913310;28;110823;-70
2024/01/06 01:07:34;;;;;;;3.67;2.90;;;1.00;99.90;0.50;99376.00;;;;4904978;28;94001;-71
2024/01/06 01:09:59;;;;;;;5.77;3.53;;;0.90;99.90;0.50;99375.00;;;;4909991;28;93017;-70
2024/01/06 01:12:25;;;;;;;3.87;3.30;;;0.90;99.90;0.50;99382.00;;;;4908039;28;93748;-70
2024/01/06 01:14:52;;;;;;;5.27;3.13;;;1.00;99.90;0.40;99370.00;;;;4904767;28;106454;-70
2024/01/06 01:17:18;;;;;;;5.00;3.57;;;0.80;99.90;0.40;99372.00;;;;4908037;28;93704;-70
2024/01/06 01:19:44;;;;;;;3.40;3.03;;;0.70;99.90;0.40;99373.00;;;;4903946;28;93174;-70
2024/01/06 01:22:10;;;;;;;4.63;3.80;;;0.80;99.90;0.40;99388.00;;;;4903425;28;111958;-70
2024/01/06 01:24:36;;;;;;;5.13;3.20;;;0.70;99.90;0.30;99373.00;;;;4914388;28;93112;-70
2024/01/06 01:27:02;;;;;;;6.13;3.90;;;0.60;99.90;0.30;99382.00;;;;4904779;28;109917;-70
2024/01/06 01:29:27;;;;;;;5.57;3.30;;;0.80;99.90;0.30;99381.00;;;;4912181;28;109651;-71
2024/01/06 01:31:53;;;;;;;6.13;3.83;;;0.60;99.90;0.30;99378.00;;;;4892562;28;122965;-70
2024/01/06 01:34:19;;;;;;;5.27;2.97;;;0.60;99.90;0.20;99377.00;;;;4902560;28;110027;-70
2024/01/06 01:36:45;;;;;;;4.60;3.47;;;0.60;99.90;0.20;99381.00;;;;4908539;28;92823;-70
2024/01/06 01:39:11;;;;;;;5.40;4.00;;;0.60;99.90;0.20;99391.00;;;;4908529;28;93031;-70
2024/01/06 01:41:36;;;;;;;6.10;3.50;;;0.60;99.90;0.20;99378.00;;;;4906079;28;93563;-70
2024/01/06 01:44:02;;;;;;;8.33;2.90;;;0.60;99.90;0.10;99383.00;;;;4908396;28;93158;-70
2024/01/06 01:46:29;;;;;;;4.30;3.33;;;0.50;99.90;0.10;99374.00;;;;4908491;28;92391;-70
2024/01/06 01:48:56;;;;;;;2.90;2.27;;;0.50;99.90;0.10;99373.00;;;;4907735;28;98940;-70
2024/01/06 01:51:26;;;;;;;8.37;4.07;;;0.90;99.90;0.10;99373.00;;;;4904730;28;94117;-70
2024/01/06 01:53:52;;;;;;;5.07;3.17;;;0.60;99.90;0.10;99377.00;;;;4908163;28;94009;-71
2024/01/06 01:56:19;;;;;;;6.03;3.70;;;0.50;99.90;0.10;99373.00;;;;4907307;28;109240;-71
2024/01/06 01:58:46;;;;;;;3.43;2.67;;;0.80;99.90;0.10;99373.00;;;;4906147;28;122395;-70
2024/01/06 02:01:12;;;;;;;7.20;2.93;;;0.50;99.90;0.10;99381.00;;;;4921479;28;116343;-71
2024/01/06 02:03:40;;;;;;;7.07;3.57;;;0.40;99.90;0.10;99381.00;;;;4923069;28;93097;-70
2024/01/06 02:06:06;;;;;;;2.37;2.17;;;0.50;99.90;0.00;99378.00;;;;4928426;28;92829;-70
2024/01/06 02:08:32;;;;;;;4.40;2.83;;;0.40;99.90;0.00;99382.00;;;;4910105;28;122741;-70
2024/01/06 02:10:58;;;;;;;9.33;3.30;;;0.50;99.90;0.00;99376.00;;;;4910589;28;123195;-70
2024/01/06 02:13:24;;;;;;;4.60;3.17;;;0.40;99.90;0.00;99389.00;;;;4908951;28;93102;-70
2024/01/06 02:15:49;;;;;;;6.40;2.97;;;0.40;99.90;0.00;99377.00;;;;4909038;28;92846;-70
2024/01/06 02:18:16;;;;;;;3.83;2.87;;;0.40;99.90;0.00;99393.00;;;;4907859;28;95030;-70
2024/01/06 02:20:47;;;;;;;6.30;3.80;;;0.40;99.90;-0.10;99379.00;;;;4907701;28;123553;-70
2024/01/06 02:23:12;;;;;;;3.63;3.10;;;0.40;99.90;-0.10;99380.00;;;;4909717;28;109982;-70
2024/01/06 02:25:38;;;;;;;4.83;3.20;;;0.40;99.90;-0.10;99383.00;;;;4914938;28;105634;-70
2024/01/06 02:28:04;;;;;;;5.93;4.03;;;0.30;99.90;-0.10;99385.00;;;;4911416;28;123608;-71
2024/01/06 02:30:29;;;;;;;5.93;3.50;;;0.30;99.90;-0.10;99385.00;;;;4916311;28;94469;-71
2024/01/06 02:32:55;;;;;;;5.83;3.87;;;0.20;99.90;-0.20;99391.00;;;;4907207;28;93102;-71
2024/01/06 02:35:21;;;;;;;6.53;3.40;;;0.20;99.90;-0.20;99387.00;;;;4907694;28;109557;-71
2024/01/06 02:37:46;;;;;;;6.87;3.57;;;0.20;99.90;-0.20;99392.00;;;;4913118;28;121911;-71
2024/01/06 02:40:13;;;;;;;3.20;2.90;;;0.20;99.90;-0.30;99393.00;;;;4908789;28;120740;-71
2024/01/06 02:42:39;;;;;;;5.20;3.43;;;0.10;99.90;-0.30;99394.00;;;;4909251;28;93879;-71
2024/01/06 02:45:07;;;;;;;4.27;3.40;;;0.10;99.90;-0.30;99398.00;;;;4911273;28;92965;-71
2024/01/06 02:47:32;;;;;;;2.80;2.53;;;0.10;99.90;-0.30;99395.00;;;;4905541;28;112913;-72
2024/01/06 02:49:58;;;;;;;4.50;2.83;;;0.00;99.90;-0.30;99403.00;;;;4910604;28;120930;-71
2024/01/06 02:52:27;;;;;;;3.40;2.60;;;0.00;99.90;-0.40;99394.00;;;;4908455;28;108044;-71
2024/01/06 02:54:53;;;;;;;4.30;3.07;;;0.00;99.90;-0.40;99403.00;;;;4909931;28;93273;-71
2024/01/06 02:57:18;;;;;;;3.83;2.67;;;0.60;99.90;-0.40;99395.00;;;;4907276;28;122012;-71
2024/01/06 02:59:44;;;;;;;4.00;2.70;;;0.00;99.90;-0.40;99411.00;;;;4906471;28;101907;-71
2024/01/06 03:02:11;;;;;;;4.47;2.80;;;0.00;99.90;-0.40;99403.00;;;;4907360;28;111406;-71
2024/01/06 03:04:37;;;;;;;4.70;3.40;;;0.00;99.90;-0.40;99406.00;;;;4905454;28;102524;-71
2024/01/06 03:07:02;;;;;;;4.07;2.90;;;0.00;99.90;-0.50;99410.00;;;;4901999;28;122879;-71
2024/01/06 03:09:28;;;;;;;6.17;3.53;;;0.70;99.90;-0.50;99416.00;;;;4903116;28;109569;-71
2024/01/06 03:11:57;;;;;;;4.40;3.13;;;0.60;99.90;-0.50;99425.00;;;;4905297;28;102676;-70
2024/01/06 03:14:22;;;;;;;3.93;3.37;;;0.00;99.90;-0.50;99425.00;;;;4903735;28;109976;-71
2024/01/06 03:16:48;;;;;;;5.43;3.43;;;-0.10;99.90;-0.60;99425.00;;;;4903191;28;123066;-70
2024/01/06 03:19:14;;;;;;;5.03;3.03;;;0.60;99.90;-0.60;99420.00;;;;4907445;28;122697;-70
2024/01/06 03:21:39;;;;;;;3.53;3.17;;;-0.20;99.90;-0.60;99421.00;;;;4917299;28;109353;-70
2024/01/06 03:24:09;;;;;;;5.87;3.40;;;-0.20;99.90;-0.60;99415.00;;;;4906547;28;109877;-70
2024/01/06 03:26:34;;;;;;;9.00;3.70;;;-0.20;99.90;-0.60;99421.00;;;;4917104;28;93114;-70
2024/01/06 03:29:02;;;;;;;4.10;2.87;;;-0.20;99.90;-0.60;99421.00;;;;4902985;28;123078;-70
2024/01/06 03:31:29;;;;;;;5.30;3.67;;;-0.30;99.90;-0.60;99435.00;;;;4910271;28;93804;-70
2024/01/06 03:33:55;;;;;;;3.50;2.83;;;-0.20;99.90;-0.60;99419.00;;;;4903868;28;96406;-70
2024/01/06 03:36:21;;;;;;;5.23;3.93;;;-0.20;99.90;-0.60;99431.00;;;;4908386;28;93264;-69
2024/01/06 03:38:47;;;;;;;6.70;4.80;;;-0.30;99.90;-0.70;99425.00;;;;4904401;28;93359;-69
2024/01/06 03:41:13;;;;;;;4.00;3.60;;;-0.30;99.90;-0.70;99432.00;;;;4906580;28;109797;-69
2024/01/06 03:43:38;;;;;;;5.97;4.13;;;-0.30;99.90;-0.70;99427.00;;;;4904366;28;104482;-69
2024/01/06 03:46:05;;;;;;;5.77;3.73;;;-0.20;99.90;-0.70;99443.00;;;;4902828;28;122809;-69
2024/01/06 03:48:31;;;;;;;5.87;3.73;;;-0.30;99.90;-0.70;99442.00;;;;4902978;28;107985;-69
2024/01/06 03:50:59;;;;;;;6.33;3.60;;;-0.30;99.90;-0.70;99435.00;;;;4909886;28;93556;-69
2024/01/06 03:53:24;;;;;;;5.37;3.23;;;-0.30;99.90;-0.70;99431.00;;;;4902847;28;99336;-68
2024/01/06 03:55:51;;;;;;;6.23;3.67;;;-0.40;99.90;-0.70;99442.00;;;;4906824;28;123379;-68
2024/01/06 03:58:17;;;;;;;5.27;3.87;;;-0.30;99.90;-0.70;99440.00;;;;4907630;28;93927;-69
2024/01/06 04:00:43;;;;;;;5.17;3.93;;;-0.30;99.90;-0.80;99435.00;;;;4906187;28;99628;-68
2024/01/06 04:03:08;;;;;;;3.97;3.50;;;-0.30;99.90;-0.70;99428.00;;;;4909326;28;92831;-68
2024/01/06 04:05:34;;;;;;;6.93;4.10;;;-0.30;99.90;-0.70;99434.00;;;;4904760;28;110368;-68
2024/01/06 04:08:00;;;;;;;5.77;3.43;;;-0.30;99.90;-0.70;99434.00;;;;4906964;28;121917;-68
2024/01/06 04:10:26;;;;;;;8.47;4.43;;;-0.40;99.90;-0.70;99441.00;;;;4903569;28;110740;-68
2024/01/06 04:12:51;;;;;;;6.60;3.70;;;-0.40;99.90;-0.70;99445.00;;;;4902837;28;92694;-68
2024/01/06 04:15:17;;;;;;;5.77;3.97;;;0.40;99.90;-0.70;99433.00;;;;4903614;28;122318;-68
2024/01/06 04:17:43;;;;;;;7.33;4.93;;;-0.40;99.90;-0.70;99437.00;;;;4907095;28;118057;-68
2024/01/06 04:20:12;;;;;;;7.87;4.10;;;-0.40;99.90;-0.70;99440.00;;;;4900347;28;93969;-70
2024/01/06 04:22:38;;;;;;;9.60;5.47;;;-0.30;99.90;-0.70;99454.00;;;;4902837;28;92893;-69
2024/01/06 04:25:04;;;;;;;7.63;4.47;;;-0.30;99.90;-0.70;99452.00;;;;4905380;28;101440;-69
2024/01/06 04:27:30;;;;;;;7.77;4.43;;;-0.30;99.90;-0.70;99459.00;;;;4905853;28;110045;-69
2024/01/06 04:29:56;;;;;;;5.67;3.93;;;-0.30;99.90;-0.70;99455.00;;;;4908193;28;92900;-69
2024/01/06 04:32:22;;;;;;;9.97;5.53;;;-0.30;99.90;-0.60;99455.00;;;;4901970;28;109400;-69
2024/01/06 04:34:48;;;;;;;6.40;4.80;;;-0.20;99.90;-0.60;99461.00;;;;4902656;28;121970;-70
2024/01/06 04:37:14;;;;;;;8.30;5.57;;;-0.20;99.90;-0.60;99463.00;;;;4906348;28;92361;-70
2024/01/06 04:39:40;;;;;;;8.67;4.93;;;-0.20;99.90;-0.60;99467.00;;;;4911141;28;92929;-70
2024/01/06 04:42:06;;;;;;;8.73;4.93;;;-0.20;99.90;-0.60;99462.00;;;;4908578;28;97595;-70
2024/01/06 04:44:31;;;;;;;5.67;4.53;;;-0.20;99.90;-0.60;99463.00;;;;4906527;28;124573;-69
2024/01/06 04:46:57;;;;;;;8.33;5.33;;;-0.20;99.90;-0.60;99444.00;;;;4905250;28;122561;-70
2024/01/06 04:49:23;;;;;;;8.20;4.43;;;-0.20;99.90;-0.50;99460.00;;;;4907147;28;111031;-70
2024/01/06 04:51:48;;;;;;;8.77;4.57;;;-0.20;99.90;-0.50;99468.00;;;;4901340;28;109036;-70
2024/01/06 04:54:14;;;;;;;6.27;4.50;;;-0.10;99.90;-0.40;99464.00;;;;4904162;28;123816;-70
2024/01/06 04:56:40;;;;;;;7.37;4.60;;;-0.20;99.90;-0.40;99460.00;;;;4905255;28;121463;-69
2024/01/06 04:59:06;;;;;;;5.93;4.27;;;0.00;99.90;-0.30;99443.00;;;;4901070;28;110567;-69
2024/01/06 05:01:32;;;;;;;9.57;4.77;;;0.00;99.90;-0.30;99461.00;;;;4906164;28;92326;-69
2024/01/06 05:03:58;;;;;;;6.13;3.60;;;0.10;99.90;-0.30;99456.00;;;;4906208;28;93794;-70
2024/01/06 05:06:24;;;;;;;7.50;4.63;;;0.10;99.90;-0.30;99465.00;;;;4889267;28;95203;-69
2024/01/06 05:08:53;;;;;;;6.87;4.63;;;0.40;99.90;-0.30;99476.00;;;;4909780;28;94438;-70
2024/01/06 05:11:19;;;;;;;6.63;4.10;;;0.10;99.90;-0.30;99469.00;;;;4904349;28;108294;-70
2024/01/06 05:13:44;;;;;;;6.50;4.30;;;0.00;99.90;-0.30;99468.00;;;;4910786;28;121526;-70
2024/01/06 05:16:10;;;;;;;5.40;3.80;;;0.00;99.90;-0.40;99473.00;;;;4903208;28;122648;-69
2024/01/06 05:18:36;;;;;;;9.50;4.33;;;-0.10;99.90;-0.40;99474.00;;;;4902740;28;111076;-69
2024/01/06 05:21:03;;;;;;;7.93;4.63;;;0.00;99.90;-0.40;99487.00;;;;4907664;28;109082;-70
2024/01/06 05:23:29;;;;;;;7.57;5.00;;;0.00;99.90;-0.40;99479.00;;;;4916494;28;93044;-69
2024/01/06 05:25:54;;;;;;;6.63;5.10;;;0.00;99.90;-0.40;99486.00;;;;4902533;28;123680;-70
2024/01/06 05:28:20;;;;;;;8.23;5.50;;;0.00;99.90;-0.40;99478.00;;;;4903738;28;109954;-69
2024/01/06 05:30:46;;;;;;;8.30;5.43;;;0.00;99.90;-0.30;99474.00;;;;4905944;28;109538;-69
2024/01/06 05:33:13;;;;;;;7.40;5.17;;;0.00;99.90;-0.30;99490.00;;;;4905573;28;95656;-69
2024/01/06 05:35:39;;;;;;;8.03;5.13;;;0.00;99.90;-0.30;99480.00;;;;4903071;28;94681;-69
2024/01/06 05:38:05;;;;;;;8.93;5.70;;;0.10;99.90;-0.20;99488.00;;;;4907123;28;92987;-69
2024/01/06 05:40:30;;;;;;;7.20;4.60;;;0.10;99.90;-0.20;99487.00;;;;4906446;28;92938;-69
2024/01/06 05:42:56;;;;;;;6.97;5.10;;;0.10;99.90;-0.20;99500.00;;;;4909161;28;121126;-69
2024/01/06 05:45:22;;;;;;;9.43;5.00;;;0.10;99.90;-0.20;99507.00;;;;4910026;28;93764;-69
2024/01/06 05:47:48;;;;;;;6.87;5.47;;;0.20;99.90;-0.10;99502.00;;;;4923707;28;93266;-69
2024/01/06 05:50:16;;;;;;;14.67;6.57;;;0.20;99.90;-0.10;99520.00;;;;4907924;28;98817;-69
2024/01/06 05:52:42;;;;;;;8.90;5.43;;;0.20;99.90;0.00;99510.00;;;;4906003;28;112262;-69
2024/01/06 05:55:09;;;;;;;16.60;7.13;;;0.30;99.90;0.00;99516.00;;;;4905750;28;94132;-69
2024/01/06 05:57:35;;;;;;;8.73;5.20;;;0.40;99.90;0.00;99528.00;;;;4910259;28;94189;-69
2024/01/06 06:00:01;;;;;;;11.40;5.83;;;0.30;99.90;0.10;99538.00;;;;4906656;28;98590;-69
2024/01/06 06:02:26;;;;;;;9.10;6.30;;;0.40;99.90;0.10;99536.00;;;;4907704;28;123684;-69
2024/01/06 06:04:52;;;;;;;11.73;6.13;;;0.40;99.90;0.10;99534.00;;;;4908838;28;96067;-69
2024/01/06 06:07:19;;;;;;;10.40;5.80;;;0.40;99.90;0.20;99533.00;;;;4909898;28;100411;-70
2024/01/06 06:09:47;;;;;;;9.67;6.67;;;0.50;99.90;0.20;99555.00;;;;4893343;28;93795;-69
2024/01/06 06:12:13;;;;;;;7.50;5.30;;;0.50;99.90;0.20;99555.00;;;;4909622;28;93479;-69
2024/01/06 06:14:39;;;;;;;8.57;6.27;;;0.60;99.90;0.30;99554.00;;;;4905986;28;94002;-69
2024/01/06 06:17:05;;;;;;;13.03;7.50;;;0.60;99.90;0.30;99569.00;;;;4903456;28;111372;-69
2024/01/06 06:19:31;;;;;;;10.97;7.80;;;0.60;99.90;0.30;99576.00;;;;4910782;28;93129;-69
2024/01/06 06:21:58;;;;;;;13.90;8.57;;;0.70;99.90;0.40;99563.00;;;;4920934;28;103475;-69
2024/01/06 06:24:23;;;;;;;13.73;8.73;;;0.70;99.90;0.40;99578.00;;;;4906255;28;111694;-69
2024/01/06 06:26:49;;;;;;;10.17;7.30;;;0.70;99.90;0.40;99592.00;;;;4875151;28;93098;-68
2024/01/06 06:29:15;;;;;;;10.43;6.50;;;1.00;99.90;0.40;99585.00;;;;4904885;28;109626;-69
2024/01/06 06:31:42;;;;;;;10.03;6.93;;;0.70;99.90;0.40;99593.00;;;;4905878;28;123520;-69
2024/01/06 06:34:09;;;;;;;9.10;6.53;;;0.20;99.90;0.50;99586.00;;;;4907108;28;93760;-71
2024/01/06 06:36:35;;;;;;;12.10;7.00;;;1.00;99.90;0.50;99607.00;;;;4912766;28;93063;-70
2024/01/06 06:39:01;;;;;;;9.10;6.17;;;0.80;99.90;0.50;99605.00;;;;4911365;28;101920;-71
2024/01/06 06:41:26;;;;;;;12.20;7.33;;;0.80;99.90;0.50;99606.00;;;;4900361;28;115380;-70
2024/01/06 06:43:52;;;;;;;13.27;7.77;;;0.80;99.90;0.50;99609.00;;;;4908940;28;121509;-70
2024/01/06 06:46:18;;;;;;;10.13;6.97;;;0.90;99.90;0.50;99616.00;;;;4905949;28;111255;-70
2024/01/06 06:48:43;;;;;;;16.67;7.27;;;0.90;99.90;0.50;99625.00;;;;4904312;28;107074;-69
2024/01/06 06:51:10;;;;;;;10.70;7.43;;;0.90;99.90;0.60;99625.00;;;;4907264;28;122783;-70
2024/01/06 06:53:36;;;;;;;15.13;8.80;;;0.90;99.90;0.60;99627.00;;;;4905485;28;93662;-70
2024/01/06 06:56:02;;;;;;;12.77;8.10;;;0.90;99.90;0.60;99620.00;;;;4904463;28;109150;-71
2024/01/06 06:58:27;;;;;;;12.70;8.63;;;1.00;99.90;0.60;99636.00;;;;4904220;28;93299;-70
2024/01/06 07:00:54;;;;;;;11.00;7.53;;;1.00;99.90;0.60;99642.00;;;;4906031;28;122346;-70
2024/01/06 07:03:20;;;;;;;11.23;7.03;;;1.00;99.90;0.70;99640.00;;;;4904411;28;93051;-70
2024/01/06 07:05:46;;;;;;;15.40;7.73;;;1.00;99.90;0.70;99648.00;;;;4907023;28;93153;-69
2024/01/06 07:08:13;;;;;;;11.63;8.33;;;1.00;99.90;0.80;99649.00;;;;4904931;28;108502;-69
2024/01/06 07:10:39;;;;;;;12.73;7.47;;;1.00;99.90;0.80;99649.00;;;;4897406;28;94307;-69
2024/01/06 07:13:05;;;;;;;13.10;7.27;;;1.10;99.90;0.80;99662.00;;;;4901273;28;120708;-68
2024/01/06 07:15:30;;;;;;;11.67;7.57;;;1.00;99.90;0.80;99660.00;;;;4901955;28;92923;-69
2024/01/06 07:17:56;;;;;;;9.77;8.07;;;1.10;99.90;0.80;99668.00;;;;4902663;28;107762;-69
2024/01/06 07:20:22;;;;;;;15.57;9.13;;;1.10;99.90;0.80;99683.00;;;;4906318;28;92977;-70
2024/01/06 07:22:47;;;;;;;15.53;10.23;;;1.70;99.90;0.80;99675.00;;;;4902328;28;122118;-69
2024/01/06 07:25:13;;;;;;;14.13;8.80;;;1.10;99.90;0.80;99677.00;;;;4899277;28;110416;-69
2024/01/06 07:27:39;;;;;;;12.00;7.73;;;1.10;99.90;0.90;99678.00;;;;4924053;28;96846;-69
2024/01/06 07:30:08;;;;;;;18.33;9.63;;;1.20;99.90;0.90;99684.00;;;;4904467;28;94150;-69
2024/01/06 07:32:33;;;;;;;10.73;8.27;;;1.90;99.90;0.90;99692.00;;;;4904284;28;95632;-69
2024/01/06 07:34:59;;;;;;;11.60;8.93;;;1.20;99.90;0.90;99683.00;;;;4906465;28;100428;-68
2024/01/06 07:37:25;;;;;;;16.33;9.73;;;1.20;99.90;1.00;99696.00;;;;4900431;28;108823;-70
2024/01/06 07:39:51;;;;;;;13.07;9.73;;;1.30;99.90;1.00;99693.00;;;;4903037;28;94406;-69
2024/01/06 07:42:17;;;;;;;16.97;9.63;;;1.30;99.90;1.00;99698.00;;;;4903798;28;116266;-70
2024/01/06 07:44:44;;;;;;;16.27;9.57;;;1.30;99.90;1.00;99704.00;;;;4902760;28;101483;-70
2024/01/06 07:47:10;;;;;;;18.00;10.60;;;1.30;99.90;1.00;99704.00;;;;4902493;28;92827;-71
2024/01/06 07:49:36;;;;;;;11.97;8.70;;;2.00;99.90;1.10;99709.00;;;;4902703;28;109440;-73
2024/01/06 07:52:02;;;;;;;14.70;10.23;;;1.30;99.90;1.10;99708.00;;;;4902019;28;92337;-72
2024/01/06 07:54:29;;;;;;;21.07;10.37;;;1.50;99.90;1.20;99708.00;;;;4907780;28;93326;-72
2024/01/06 07:56:55;;;;;;;18.13;10.07;;;1.50;99.90;1.20;99713.00;;;;4902877;28;93510;-73
2024/01/06 07:59:20;;;;;;;18.63;11.43;;;1.50;99.90;1.20;99724.00;;;;4902743;28;94240;-71
2024/01/06 08:01:46;;;;;;;15.37;10.37;;;1.70;99.90;1.30;99726.00;;;;4899137;28;122535;-72
2024/01/06 08:04:12;;;;;;;21.20;10.70;;;1.60;99.90;1.30;99729.00;;;;4897555;28;108233;-71
2024/01/06 08:06:37;;;;;;;26.33;12.33;;;1.60;99.90;1.30;99737.00;;;;4899281;28;109012;-72
2024/01/06 08:09:03;;;;;;;23.17;12.23;;;1.60;99.90;1.40;99732.00;;;;4907133;28;121326;-71
2024/01/06 08:11:29;;;;;;;26.23;12.50;;;1.80;99.90;1.40;99728.00;;;;4898348;28;117554;-72
2024/01/06 08:13:55;;;;;;;178.30;113.10;;;1.80;99.90;1.50;99727.00;;;;4905532;28;92940;-75
2024/01/06 08:16:21;;;;;;;72.53;45.60;;;1.70;99.90;1.50;99731.00;;;;4904112;28;93596;-72
2024/01/06 08:18:49;;;;;;;44.40;23.67;;;1.00;99.90;1.50;99726.00;;;;4903476;28;112070;-72
2024/01/06 08:21:15;;;;;;;30.67;19.50;;;1.80;99.90;1.60;99738.00;;;;4906845;28;121885;-73
2024/01/06 08:23:41;;;;;;;47.50;32.43;;;1.80;99.90;1.60;99738.00;;;;4902786;28;113079;-73
2024/01/06 08:26:06;;;;;;;31.77;23.07;;;1.90;99.90;1.60;99736.00;;;;4902387;28;108659;-73
2024/01/06 08:28:32;;;;;;;40.93;33.27;;;1.90;99.90;1.70;99738.00;;;;4907111;28;123050;-73
2024/01/06 08:30:57;;;;;;;48.17;34.80;;;1.90;99.90;1.70;99752.00;;;;4902123;28;120298;-75
2024/01/06 08:33:23;;;;;;;29.13;20.63;;;1.90;99.90;1.70;99753.00;;;;4903742;28;113657;-73
2024/01/06 08:35:49;;;;;;;72.33;44.87;;;2.00;99.90;1.80;99758.00;;;;4900312;28;106624;-73
2024/01/06 08:38:14;;;;;;;40.90;28.67;;;2.00;99.90;1.80;99756.00;;;;4901940;28;123066;-74
2024/01/06 08:40:40;;;;;;;28.73;17.27;;;2.00;99.90;1.90;99768.00;;;;4903374;28;93084;-72
2024/01/06 08:43:06;;;;;;;28.67;18.70;;;2.20;99.90;1.90;99777.00;;;;4906956;28;93598;-71
2024/01/06 08:45:32;;;;;;;34.83;18.77;;;2.20;99.90;1.90;99778.00;;;;4903114;28;105690;-74
2024/01/06 08:47:57;;;;;;;32.37;21.77;;;2.20;99.90;1.90;99771.00;;;;4899488;28;123781;-73
2024/01/06 08:50:23;;;;;;;46.33;30.67;;;2.30;99.90;2.00;99773.00;;;;4899882;28;123430;-73
2024/01/06 08:52:48;;;;;;;33.33;22.93;;;2.10;99.90;2.00;99766.00;;;;4895568;28;112976;-72
2024/01/06 08:55:16;;;;;;;33.80;29.77;;;2.30;99.90;2.00;99773.00;;;;4904253;28;107939;-73
2024/01/06 08:57:42;;;;;;;37.27;24.23;;;2.30;99.90;2.00;99789.00;;;;4904049;28;93210;-73
2024/01/06 09:00:09;;;;;;;31.37;21.53;;;2.20;99.90;2.00;99782.00;;;;4901589;28;95120;-73
2024/01/06 09:02:34;;;;;;;47.50;26.27;;;2.20;99.90;2.00;99782.00;;;;4906239;28;92969;-73
2024/01/06 09:05:00;;;;;;;147.57;104.03;;;2.20;99.90;2.00;99789.00;;;;4900567;28;99091;-73
2024/01/06 09:07:26;;;;;;;215.03;123.10;;;2.30;99.90;2.00;99789.00;;;;4895813;28;93616;-73
2024/01/06 09:09:51;;;;;;;1422.87;828.00;;;2.30;99.90;2.00;99788.00;;;;4905105;28;121815;-73
2024/01/06 09:12:17;;;;;;;216.80;135.03;;;2.30;99.90;2.00;99790.00;;;;4901315;28;115361;-73
2024/01/06 09:14:43;;;;;;;149.00;105.23;;;2.30;99.90;2.00;99798.00;;;;4901961;28;108969;-72
2024/01/06 09:17:08;;;;;;;168.43;107.13;;;2.30;99.90;2.10;99800.00;;;;4902964;28;122211;-71
2024/01/06 09:19:34;;;;;;;63.57;43.37;;;2.40;99.90;2.10;99809.00;;;;4898339;28;99836;-72
2024/01/06 09:22:00;;;;;;;39.43;23.47;;;2.30;99.90;2.10;99809.00;;;;4915067;28;93040;-72
2024/01/06 09:24:26;;;;;;;67.00;51.93;;;2.40;99.90;2.10;99813.00;;;;4899966;28;93104;-72
2024/01/06 09:26:51;;;;;;;42.00;27.00;;;2.30;99.90;2.20;99808.00;;;;4901482;28;123308;-72
2024/01/06 09:29:17;;;;;;;39.43;24.23;;;2.40;99.90;2.20;99812.00;;;;4899326;28;94142;-72
2024/01/06 09:31:43;;;;;;;32.77;20.80;;;2.40;99.90;2.20;99821.00;;;;4897264;28;113154;-72
2024/01/06 09:34:12;;;;;;;25.93;18.17;;;2.50;99.90;2.20;99820.00;;;;4900921;28;92977;-74
2024/01/06 09:36:37;;;;;;;37.67;20.57;;;2.40;99.90;2.20;99831.00;;;;4899758;28;93830;-74
2024/01/06 09:39:04;;;;;;;29.73;18.90;;;2.50;99.90;2.30;99837.00;;;;4899884;28;120761;-75
2024/01/06 09:41:31;;;;;;;44.70;28.03;;;2.50;99.90;2.30;99840.00;;;;4904923;28;93040;-74
2024/01/06 09:43:56;;;;;;;53.00;36.73;;;3.10;99.90;2.30;99840.00;;;;4904961;28;94571;-74
2024/01/06 09:46:27;;;;;;;50.80;27.40;;;3.10;99.90;2.30;99844.00;;;;4902593;28;114171;-74
2024/01/06 09:48:54;;;;;;;43.03;29.73;;;2.50;99.90;2.30;99846.00;;;;4888644;28;95539;-72
2024/01/06 09:51:21;;;;;;;37.43;27.67;;;3.10;99.90;2.30;99840.00;;;;4901185;28;93108;-73
2024/01/06 09:53:55;;;;;;;29.40;17.97;;;2.60;99.90;2.30;99836.00;;;;4901740;28;92378;-73
2024/01/06 09:56:21;;;;;;;43.73;24.50;;;2.50;99.90;2.30;99834.00;;;;4886706;28;113681;-73
2024/01/06 09:58:47;;;;;;;86.23;63.43;;;2.50;99.90;2.30;99834.00;;;;4906933;28;93993;-73
2024/01/06 10:01:14;;;;;;;67.83;46.03;;;2.50;99.90;2.30;99845.00;;;;4901549;28;112655;-73
2024/01/06 10:03:40;;;;;;;43.60;26.57;;;3.00;99.90;2.30;99836.00;;;;4911252;28;93149;-73
2024/01/06 10:06:07;;;;;;;37.03;23.20;;;2.50;99.90;2.30;99844.00;;;;4899070;28;110142;-74
2024/01/06 10:08:33;;;;;;;35.60;21.50;;;2.50;99.90;2.40;99833.00;;;;4903130;28;93599;-72
2024/01/06 10:11:00;;;;;;;29.57;21.57;;;3.30;99.90;2.40;99839.00;;;;4902291;28;92995;-72
2024/01/06 10:13:27;;;;;;;63.43;46.07;;;2.70;99.90;2.40;99836.00;;;;4903774;28;97707;-72
2024/01/06 10:15:53;;;;;;;45.67;25.50;;;2.60;99.90;2.40;99834.00;;;;4903289;28;95650;-74
2024/01/06 10:18:19;;;;;;;29.30;21.10;;;2.70;99.90;2.50;99843.00;;;;4902256;28;114102;-74
2024/01/06 10:20:45;;;;;;;35.60;20.40;;;2.70;99.90;2.50;99826.00;;;;4900923;28;93309;-72
2024/01/06 10:23:11;;;;;;;35.63;21.73;;;3.80;99.90;2.50;99830.00;;;;4903275;28;93200;-73
2024/01/06 10:25:37;;;;;;;39.50;22.07;;;2.70;99.90;2.50;99827.00;;;;4907740;28;122422;-72
2024/01/06 10:28:03;;;;;;;36.77;23.83;;;2.70;99.90;2.50;99827.00;;;;4907630;28;93298;-72
2024/01/06 10:30:29;;;;;;;40.30;22.80;;;2.80;99.90;2.50;99828.00;;;;4902639;28;102774;-72
2024/01/06 10:32:55;;;;;;;37.77;22.30;;;2.80;99.90;2.50;99819.00;;;;4902697;28;107845;-72
2024/01/06 10:35:20;;;;;;;89.30;63.20;;;2.80;99.90;2.50;99817.00;;;;4900235;28;121908;-72
2024/01/06 10:37:48;;;;;;;61.80;43.90;;;2.80;99.90;2.60;99818.00;;;;4902228;28;122040;-73
2024/01/06 10:40:16;;;;;;;70.10;48.43;;;2.70;99.90;2.60;99822.00;;;;4907511;28;93150;-72
2024/01/06 10:42:44;;;;;;;36.23;24.27;;;2.80;99.90;2.60;99819.00;;;;4905211;28;92340;-72
2024/01/06 10:45:13;;;;;;;39.17;26.07;;;2.90;99.90;2.60;99823.00;;;;4903320;28;102956;-72
2024/01/06 10:47:45;;;;;;;33.77;22.73;;;2.90;99.90;2.70;99820.00;;;;4905472;28;102346;-72
2024/01/06 10:50:11;;;;;;;33.50;22.93;;;2.90;99.90;2.70;99823.00;;;;4905322;28;95101;-71